Brant Lake, NY (12815)

3:51 AM EST on January 31, 2015 (GMT -0500)
APRSWXNET Bolton Landing NY US | Change Station
CLOSE
Current Station
Personal Weather Station
Location: Bolton Landing, NY
Elevation: 400 ft
Nearby Weather Stations
Active Advisory: Wind Chill Advisory Active Notice: Public Information Statement

Elev 400 ft 43.59 °N, 73.64 °W | Updated 39 minutes ago

Mostly Cloudy
Mostly Cloudy
1 °F
Feels Like 1 °F
N
0
Wind Variable Wind from SW
Gusts 1.0 mph

Today
High -- | Low -- °F
--% Chance of Precip.
Yesterday
High -- | Low -- °F
Precip. -- in
7:12 AM 5:04 PM
Waxing Gibbous, 88% visible
Pressure 30.14 in
Visibility 10.0 miles
Clouds Clear
Windchill 1 °F
Dew Point -7 °F
Humidity 69%
Rainfall 0.00 in
Snow Depth Not available.
UV 0 out of 12
Pollen .10 out of 12
Air Quality Not available.
Flu Activity Not available.
METAR KGFL 310753Z AUTO 34009G16KT 10SM CLR M16/M23 A3010 RMK AO2 SLP205 T11561228

More Conditions Fewer Conditions

Pressure 30.14 in
Visibility 10.0 miles
Clouds Clear
Windchill 1 °F
Dew Point -7 °F
Humidity 69%
Rainfall 0.00 in
Snow Depth Not available.
UV 0 out of 12
Pollen .10 out of 12
Air Quality Not available.
Flu Activity Not available.
METAR KGFL 310753Z AUTO 34009G16KT 10SM CLR M16/M23 A3010 RMK AO2 SLP205 T11561228

More Conditions Fewer Conditions

10-Day Weather Forecast

Almanac

Astronomy

Jan. 31, 2015 Rise Set
Actual Time
Civil Twilight
Nautical Twilight
Astronomical Twilight
Moon
Length of Visible Light
Length of Day
Tomorrow will be .
, % of the Moon is Illuminated

Today's Extremes

State Highs State Lows

Community

WunderPhotos

Upload Photos

1,792,021 photos uploaded!

WunderBlogs® & News

Nearby

Air Quality

  Air Quality AQ Index Pollutant
Not available.

Snow Depth

Station Depth Elevation

Earthquake Activity

City Distance Mag. Time & Date
Minimum magnitude displayed is 2.5.

Coastal Water Temperatures

Place Temperature

Nearby Weather Stations